createdAt,value
2019-05-14T00:00:48.514Z,98279.89
2019-05-14T00:03:17.744Z,98286.09
2019-05-14T00:05:44.324Z,98278.86
2019-05-14T00:08:11.433Z,98273.00
2019-05-14T00:10:38.422Z,98274.77
2019-05-14T00:13:06.791Z,98270.30
2019-05-14T00:15:37.672Z,98273.05
2019-05-14T00:18:04.494Z,98276.03
2019-05-14T00:20:33.727Z,98272.19
2019-05-14T00:23:02.980Z,98261.42
2019-05-14T00:25:33.801Z,98269.27
2019-05-14T00:28:02.127Z,98250.89
2019-05-14T00:30:31.714Z,98264.97
2019-05-14T00:33:02.637Z,98262.14
2019-05-14T00:35:29.401Z,98262.81
2019-05-14T00:37:55.923Z,98247.23
2019-05-14T00:40:22.961Z,98255.05
2019-05-14T00:42:53.411Z,98245.91
2019-05-14T00:45:21.793Z,98254.86
2019-05-14T00:47:48.451Z,98254.66
2019-05-14T00:50:25.037Z,98258.94
2019-05-14T00:52:51.882Z,98249.53
2019-05-14T00:55:27.650Z,98256.11
2019-05-14T00:57:59.443Z,98252.02
2019-05-14T01:00:37.905Z,98246.55
2019-05-14T01:03:05.680Z,98251.53
2019-05-14T01:05:32.404Z,98243.81
2019-05-14T01:07:59.129Z,98241.52
2019-05-14T01:10:25.802Z,98232.89
2019-05-14T01:12:54.447Z,98239.97
2019-05-14T01:15:23.943Z,98246.95
2019-05-14T01:17:57.756Z,98240.33
2019-05-14T01:20:26.036Z,98244.53
2019-05-14T01:22:52.676Z,98234.38
2019-05-14T01:25:23.839Z,98242.91
2019-05-14T01:28:16.501Z,98234.34
2019-05-14T01:30:42.989Z,98231.00
2019-05-14T01:33:11.677Z,98238.41
2019-05-14T01:35:38.045Z,98236.14
2019-05-14T01:38:04.973Z,98235.66
2019-05-14T01:40:32.149Z,98231.51
2019-05-14T01:42:59.015Z,98238.88
2019-05-14T01:45:28.432Z,98226.73
2019-05-14T01:47:54.092Z,98228.45
2019-05-14T01:50:21.518Z,98233.40
2019-05-14T01:52:48.598Z,98222.46
2019-05-14T01:55:15.537Z,98222.98
2019-05-14T01:57:42.658Z,98223.97
2019-05-14T02:00:11.489Z,98231.33
2019-05-14T02:02:38.260Z,98224.39
2019-05-14T02:05:05.135Z,98217.31
2019-05-14T02:07:32.431Z,98228.73
2019-05-14T02:10:01.000Z,98221.06
2019-05-14T02:12:27.401Z,98218.25
2019-05-14T02:14:53.982Z,98221.01
2019-05-14T02:17:21.277Z,98223.75
2019-05-14T02:19:48.641Z,98211.26
2019-05-14T02:22:15.265Z,98207.66
2019-05-14T02:24:42.174Z,98202.83
2019-05-14T02:27:08.823Z,98202.30
2019-05-14T02:29:35.431Z,98204.52
2019-05-14T02:32:02.196Z,98191.23
2019-05-14T02:34:29.941Z,98191.62
2019-05-14T02:37:00.170Z,98194.27
2019-05-14T02:39:28.987Z,98192.61
2019-05-14T02:41:58.902Z,98177.89
2019-05-14T02:44:25.221Z,98183.11
2019-05-14T02:46:51.807Z,98182.73
2019-05-14T02:49:19.447Z,98176.56
2019-05-14T02:51:50.428Z,98181.14
2019-05-14T02:54:15.965Z,98188.84
2019-05-14T02:56:42.717Z,98180.64
2019-05-14T02:59:09.962Z,98181.16
2019-05-14T03:01:40.419Z,98172.09
2019-05-14T03:04:05.553Z,98175.88
2019-05-14T03:06:32.999Z,98174.30
2019-05-14T03:09:00.138Z,98184.88
2019-05-14T03:11:29.702Z,98170.06
2019-05-14T03:13:55.207Z,98180.27
2019-05-14T03:16:30.479Z,98173.68
2019-05-14T03:18:50.694Z,98172.02
2019-05-14T03:21:19.882Z,98166.92
2019-05-14T03:23:45.644Z,98168.70
2019-05-14T03:26:12.313Z,98154.16
2019-05-14T03:28:40.064Z,98172.27
2019-05-14T03:31:12.164Z,98162.02
2019-05-14T03:33:35.608Z,98169.55
2019-05-14T03:36:09.147Z,98174.10
2019-05-14T03:38:31.148Z,98156.67
2019-05-14T03:41:00.268Z,98163.22
2019-05-14T03:43:29.358Z,98170.50
2019-05-14T03:45:54.746Z,98168.54
2019-05-14T03:48:21.430Z,98164.77
2019-05-14T03:50:49.569Z,98167.81
2019-05-14T03:53:18.871Z,98171.96
2019-05-14T03:55:44.716Z,98169.02
2019-05-14T03:58:11.313Z,98171.60
2019-05-14T04:00:39.004Z,98174.78
2019-05-14T04:03:09.466Z,98167.81
2019-05-14T04:05:34.571Z,98173.97
2019-05-14T04:08:01.417Z,98177.07
2019-05-14T04:10:30.055Z,98175.25
2019-05-14T04:12:59.743Z,98176.82
2019-05-14T04:15:24.881Z,98178.70
2019-05-14T04:17:51.698Z,98178.31
2019-05-14T04:20:19.706Z,98174.53
2019-05-14T04:22:49.741Z,98172.84
2019-05-14T04:25:19.295Z,98180.78
2019-05-14T04:27:44.533Z,98177.67
2019-05-14T04:30:11.161Z,98180.61
2019-05-14T04:32:39.429Z,98182.80
2019-05-14T04:35:09.358Z,98179.20
2019-05-14T04:37:34.766Z,98174.22
2019-05-14T04:40:01.559Z,98183.48
2019-05-14T04:42:29.544Z,98180.07
2019-05-14T04:44:59.658Z,98177.45
2019-05-14T04:47:32.300Z,98182.03
2019-05-14T04:49:53.816Z,98176.95
2019-05-14T04:52:20.860Z,98186.37
2019-05-14T04:54:49.935Z,98181.47
2019-05-14T04:57:20.301Z,98175.70
2019-05-14T04:59:49.372Z,98187.37
2019-05-14T05:02:18.966Z,98193.56
2019-05-14T05:04:44.643Z,98188.27
2019-05-14T05:07:11.274Z,98186.72
2019-05-14T05:09:41.531Z,98174.30
2019-05-14T05:12:09.152Z,98178.66
2019-05-14T05:14:38.610Z,98189.73
2019-05-14T05:17:04.869Z,98184.82
2019-05-14T05:19:31.518Z,98189.66
2019-05-14T05:21:58.793Z,98188.27
2019-05-14T05:26:58.524Z,98191.72
2019-05-14T05:29:25.785Z,98192.27
2019-05-14T05:31:54.552Z,98187.99
2019-05-14T05:34:21.591Z,98183.55
2019-05-14T05:36:48.670Z,98192.47
2019-05-14T05:39:15.469Z,98185.80
2019-05-14T05:41:42.535Z,98186.95
2019-05-14T05:44:09.126Z,98184.80
2019-05-14T05:46:38.976Z,98183.05
2019-05-14T05:49:07.907Z,98172.73
2019-05-14T05:51:34.404Z,98179.08
2019-05-14T05:54:01.097Z,98175.93
2019-05-14T05:56:28.817Z,98176.62
2019-05-14T05:58:55.838Z,98182.61
2019-05-14T06:01:37.642Z,98176.10
2019-05-14T06:03:51.977Z,98182.83
2019-05-14T06:06:19.420Z,98179.17
2019-05-14T06:08:48.886Z,98182.56
2019-05-14T06:11:15.044Z,98187.05
2019-05-14T06:13:41.651Z,98179.53
2019-05-14T06:16:09.428Z,98178.06
2019-05-14T06:18:38.801Z,98184.88
2019-05-14T06:21:05.374Z,98191.50
2019-05-14T06:23:32.025Z,98186.16
2019-05-14T06:25:59.961Z,98185.02
2019-05-14T06:28:33.000Z,98185.22
2019-05-14T06:30:55.797Z,98189.88
2019-05-14T06:33:22.648Z,98187.31
2019-05-14T06:35:49.370Z,98188.80
2019-05-14T06:38:18.364Z,98189.30
2019-05-14T06:40:49.007Z,98181.64
2019-05-14T06:43:15.922Z,98190.94
2019-05-14T06:45:42.550Z,98190.25
2019-05-14T06:48:26.385Z,98187.61
2019-05-14T06:50:39.388Z,98182.16
2019-05-14T06:53:08.800Z,98178.58
2019-05-14T06:55:35.527Z,98182.19
2019-05-14T06:58:02.535Z,98176.70
2019-05-14T07:00:30.537Z,98175.56
2019-05-14T07:02:58.291Z,98178.76
2019-05-14T07:05:28.136Z,98180.11
2019-05-14T07:07:54.569Z,98170.50
2019-05-14T07:10:21.591Z,98167.70
2019-05-14T07:12:49.915Z,98172.09
2019-05-14T07:15:18.252Z,98166.16
2019-05-14T07:17:45.520Z,98164.80
2019-05-14T07:20:14.788Z,98171.98
2019-05-14T07:22:40.533Z,98180.03
2019-05-14T07:27:39.448Z,98177.43
2019-05-14T07:30:08.801Z,98171.47
2019-05-14T07:32:34.847Z,98167.44
2019-05-14T07:35:01.462Z,98170.16
2019-05-14T07:37:28.756Z,98156.04
2019-05-14T07:39:57.826Z,98165.02
2019-05-14T07:42:24.154Z,98165.50
2019-05-14T07:44:50.829Z,98164.40
2019-05-14T07:47:18.861Z,98165.35
2019-05-14T07:49:45.895Z,98168.16
2019-05-14T07:52:12.539Z,98159.89
2019-05-14T07:54:40.350Z,98159.54
2019-05-14T07:57:13.213Z,98159.47
2019-05-14T07:59:40.062Z,98166.42
2019-05-14T08:02:09.131Z,98159.63
2019-05-14T08:04:35.391Z,98155.98
2019-05-14T08:07:19.182Z,98154.52
2019-05-14T08:09:47.890Z,98149.42
2019-05-14T08:12:16.345Z,98153.62
2019-05-14T08:14:57.184Z,98150.27
2019-05-14T08:17:11.196Z,98148.55
2019-05-14T08:19:38.536Z,98136.39
2019-05-14T08:22:09.670Z,98137.44
2019-05-14T08:24:38.500Z,98142.30
2019-05-14T08:27:05.392Z,98145.06
2019-05-14T08:29:32.260Z,98140.73
2019-05-14T08:32:00.373Z,98135.46
2019-05-14T08:34:29.427Z,98133.98
2019-05-14T08:36:55.702Z,98140.23
2019-05-14T08:39:22.449Z,98144.45
2019-05-14T08:41:59.466Z,98136.77
2019-05-14T08:44:24.515Z,98138.30
2019-05-14T08:46:51.662Z,98129.35
2019-05-14T08:49:18.580Z,98134.66
2019-05-14T08:51:45.444Z,98124.88
2019-05-14T08:54:12.474Z,98124.05
2019-05-14T08:56:39.422Z,98126.70
2019-05-14T08:59:08.669Z,98119.71
2019-05-14T09:01:34.911Z,98113.91
2019-05-14T09:04:03.177Z,98110.17
2019-05-14T09:06:29.820Z,98106.43
2019-05-14T09:08:59.215Z,98101.45
2019-05-14T09:11:26.185Z,98096.52
2019-05-14T09:13:53.144Z,98094.22
2019-05-14T09:16:20.012Z,98092.38
2019-05-14T09:18:48.851Z,98087.77
2019-05-14T09:21:16.344Z,98082.19
2019-05-14T09:23:43.049Z,98080.14
2019-05-14T09:26:09.911Z,98074.59
2019-05-14T09:28:39.016Z,98064.02
2019-05-14T09:31:08.437Z,98062.19
2019-05-14T09:33:34.362Z,98063.19
2019-05-14T09:36:14.671Z,98052.88
2019-05-14T09:38:29.661Z,98049.91
2019-05-14T09:41:08.109Z,98055.02
2019-05-14T09:43:25.219Z,98052.38
2019-05-14T09:45:51.830Z,98047.25
2019-05-14T09:48:18.555Z,98043.67
2019-05-14T09:50:45.429Z,98044.41
2019-05-14T09:53:12.427Z,98041.84
2019-05-14T09:55:39.315Z,98043.10
2019-05-14T09:58:08.094Z,98041.16
2019-05-14T10:00:34.717Z,98032.50
2019-05-14T10:03:01.643Z,98028.89
2019-05-14T10:05:28.269Z,98031.17
2019-05-14T10:07:54.936Z,98025.94
2019-05-14T10:10:21.532Z,98023.30
2019-05-14T10:12:53.869Z,98016.90
2019-05-14T10:15:17.217Z,98026.06
2019-05-14T10:17:43.935Z,98018.20
2019-05-14T10:20:10.563Z,98024.33
2019-05-14T10:22:39.504Z,98017.92
2019-05-14T10:25:05.573Z,98016.33
2019-05-14T10:27:32.208Z,98016.02
2019-05-14T10:29:58.975Z,98019.50
2019-05-14T10:32:25.611Z,98015.55
2019-05-14T10:34:52.206Z,98037.69
2019-05-14T10:37:19.356Z,98035.02
2019-05-14T10:39:46.303Z,98038.28
2019-05-14T10:42:13.128Z,98050.78
2019-05-14T10:44:40.147Z,98046.06
2019-05-14T10:47:09.278Z,98039.20
2019-05-14T10:49:35.327Z,98038.64
2019-05-14T10:52:01.999Z,98038.23
2019-05-14T10:54:29.389Z,98030.80
2019-05-14T10:56:58.958Z,98037.63
2019-05-14T10:59:24.905Z,98031.97
2019-05-14T11:01:51.647Z,98019.27
2019-05-14T11:04:18.981Z,98019.18
2019-05-14T11:06:45.675Z,98006.36
2019-05-14T11:09:12.295Z,98007.24
2019-05-14T11:11:38.914Z,98005.13
2019-05-14T11:14:05.613Z,97990.70
2019-05-14T11:16:32.276Z,97990.30
2019-05-14T11:18:59.346Z,97992.02
2019-05-14T11:21:29.693Z,97985.84
2019-05-14T11:23:54.469Z,97986.11
2019-05-14T11:26:24.363Z,97982.34
2019-05-14T11:28:50.032Z,97974.22
2019-05-14T11:31:19.102Z,97979.89
2019-05-14T11:33:44.963Z,97975.91
2019-05-14T11:36:11.927Z,97976.91
2019-05-14T11:38:39.962Z,97973.13
2019-05-14T11:41:09.351Z,97970.15
2019-05-14T11:43:35.006Z,97968.34
2019-05-14T11:46:01.770Z,97969.38
2019-05-14T11:48:28.632Z,97970.19
2019-05-14T11:50:55.665Z,97966.73
2019-05-14T11:53:22.715Z,97963.56
2019-05-14T11:55:50.479Z,97963.27
2019-05-14T11:58:20.913Z,97965.45
2019-05-14T12:00:45.999Z,97961.97
2019-05-14T12:03:12.628Z,97967.19
2019-05-14T12:05:40.003Z,97966.22
2019-05-14T12:08:08.691Z,97963.52
2019-05-14T12:10:34.936Z,97968.97
2019-05-14T12:13:02.881Z,97962.53
2019-05-14T12:15:29.556Z,97961.61
2019-05-14T12:17:59.272Z,97963.40
2019-05-14T12:20:24.527Z,97964.48
2019-05-14T12:22:51.120Z,97956.02
2019-05-14T12:25:18.825Z,97950.09
2019-05-14T12:27:46.331Z,97955.89
2019-05-14T12:30:13.004Z,97945.73
2019-05-14T12:32:40.048Z,97944.77
2019-05-14T12:35:08.567Z,97948.63
2019-05-14T12:37:35.385Z,97945.56
2019-05-14T12:40:02.274Z,97943.86
2019-05-14T12:42:29.561Z,97934.38
2019-05-14T12:44:58.534Z,97937.94
2019-05-14T12:47:24.821Z,97926.48
2019-05-14T12:49:51.808Z,97934.95
2019-05-14T12:52:25.555Z,97926.08
2019-05-14T12:54:49.864Z,97932.59
2019-05-14T12:57:15.643Z,97913.34
2019-05-14T12:59:42.319Z,97906.75
2019-05-14T13:02:09.809Z,97912.09
2019-05-14T13:04:36.919Z,97908.05
2019-05-14T13:07:04.166Z,97897.84
2019-05-14T13:09:30.799Z,97889.12
2019-05-14T13:11:58.684Z,97892.73
2019-05-14T13:14:28.193Z,97888.37
2019-05-14T13:16:54.646Z,97884.68
2019-05-14T13:19:21.485Z,97881.87
2019-05-14T13:21:50.503Z,97882.77
2019-05-14T13:24:18.141Z,97884.43
2019-05-14T13:26:46.596Z,97883.86
2019-05-14T13:29:13.195Z,97876.03
2019-05-14T13:31:39.897Z,97878.14
2019-05-14T13:34:08.903Z,97873.81
2019-05-14T13:36:35.822Z,97873.82
2019-05-14T13:39:02.524Z,97860.22
2019-05-14T13:41:30.487Z,97858.68
2019-05-14T13:43:58.748Z,97855.07
2019-05-14T13:46:28.465Z,97851.83
2019-05-14T13:48:54.230Z,97859.69
2019-05-14T13:51:20.861Z,97856.21
2019-05-14T13:53:49.934Z,97856.28
2019-05-14T13:56:16.124Z,97851.92
2019-05-14T13:58:42.980Z,97847.22
2019-05-14T14:01:10.077Z,97846.42
2019-05-14T14:03:47.026Z,97844.02
2019-05-14T14:06:05.414Z,97838.69
2019-05-14T14:08:32.370Z,97837.09
2019-05-14T14:11:02.583Z,97839.91
2019-05-14T14:13:28.605Z,97837.39
2019-05-14T14:15:58.706Z,97837.98
2019-05-14T14:18:26.379Z,97823.55
2019-05-14T14:20:53.326Z,97832.46
2019-05-14T14:23:31.028Z,97831.17
2019-05-14T14:25:54.669Z,97825.19
2019-05-14T14:28:20.062Z,97822.94
2019-05-14T14:30:49.100Z,97813.72
2019-05-14T14:33:18.588Z,97809.60
2019-05-14T14:35:48.585Z,97812.31
2019-05-14T14:38:19.708Z,97803.13
2019-05-14T14:40:44.237Z,97806.95
2019-05-14T14:43:11.131Z,97798.28
2019-05-14T14:45:45.536Z,97805.75
2019-05-14T14:48:12.679Z,97800.06
2019-05-14T14:50:44.769Z,97802.52
2019-05-14T14:53:11.348Z,97798.64
2019-05-14T14:55:40.020Z,97791.77
2019-05-14T14:58:11.067Z,97793.00
2019-05-14T15:00:38.039Z,97786.05
2019-05-14T15:03:04.772Z,97786.95
2019-05-14T15:05:34.804Z,97782.14
2019-05-14T15:08:04.333Z,97782.81
2019-05-14T15:10:34.284Z,97782.09
2019-05-14T15:13:17.086Z,97780.58
2019-05-14T15:18:25.162Z,97779.93
2019-05-14T15:20:51.758Z,97777.19
2019-05-14T15:23:19.339Z,97778.51
2019-05-14T15:25:46.667Z,97777.08
2019-05-14T15:28:13.573Z,97771.10
2019-05-14T15:30:40.175Z,97773.95
2019-05-14T15:33:09.162Z,97771.21
2019-05-14T15:35:35.411Z,97765.98
2019-05-14T15:38:02.050Z,97761.94
2019-05-14T15:40:31.082Z,97765.67
2019-05-14T15:43:01.609Z,97767.41
2019-05-14T15:45:28.646Z,97765.80
2019-05-14T15:50:29.145Z,97772.02
2019-05-14T15:52:55.971Z,97764.25
2019-05-14T15:55:22.563Z,97780.23
2019-05-14T15:57:49.251Z,97773.80
2019-05-14T16:00:15.924Z,97767.01
2019-05-14T16:02:42.556Z,97761.14
2019-05-14T16:05:10.285Z,97764.56
2019-05-14T16:07:39.127Z,97762.67
2019-05-14T16:10:08.394Z,97763.04
2019-05-14T16:12:34.542Z,97760.39
2019-05-14T16:15:01.250Z,97764.39
2019-05-14T16:17:30.359Z,97764.28
2019-05-14T16:19:56.621Z,97772.08
2019-05-14T16:22:23.325Z,97757.45
2019-05-14T16:24:56.233Z,97760.84
2019-05-14T16:27:19.768Z,97756.72
2019-05-14T16:29:46.667Z,97749.34
2019-05-14T16:32:13.593Z,97743.09
2019-05-14T16:34:41.337Z,97741.47
2019-05-14T16:37:11.124Z,97747.80
2019-05-14T16:39:39.038Z,97732.11
2019-05-14T16:42:05.191Z,97740.03
2019-05-14T16:44:31.779Z,97732.45
2019-05-14T16:46:58.831Z,97731.17
2019-05-14T16:49:29.917Z,97721.98
2019-05-14T16:51:59.375Z,97721.82
2019-05-14T16:54:25.335Z,97716.42
2019-05-14T16:56:52.151Z,97713.48
2019-05-14T16:59:18.932Z,97721.70
2019-05-14T17:01:45.535Z,97713.71
2019-05-14T17:04:12.160Z,97714.64
2019-05-14T17:06:38.772Z,97719.92
2019-05-14T17:09:05.692Z,97728.08
2019-05-14T17:14:04.372Z,97728.03
2019-05-14T17:16:31.023Z,97726.45
2019-05-14T17:18:59.423Z,97730.50
2019-05-14T17:21:26.283Z,97733.82
2019-05-14T17:23:53.642Z,97728.84
2019-05-14T17:26:20.430Z,97733.08
2019-05-14T17:28:48.829Z,97741.83
2019-05-14T17:31:15.323Z,97740.16
2019-05-14T17:33:42.175Z,97736.17
2019-05-14T17:36:09.825Z,97728.70
2019-05-14T17:38:39.106Z,97736.77
2019-05-14T17:41:05.844Z,97733.27
2019-05-14T17:43:32.436Z,97724.68
2019-05-14T17:46:00.193Z,97726.56
2019-05-14T17:48:28.418Z,97717.00
2019-05-14T17:50:55.490Z,97723.65
2019-05-14T17:53:22.094Z,97725.48
2019-05-14T17:55:50.900Z,97724.25
2019-05-14T17:58:18.893Z,97727.70
2019-05-14T18:00:45.721Z,97719.70
2019-05-14T18:03:12.893Z,97721.68
2019-05-14T18:05:39.592Z,97721.37
2019-05-14T18:08:06.214Z,97720.45
2019-05-14T18:10:36.141Z,97718.36
2019-05-14T18:13:03.017Z,97720.81
2019-05-14T18:15:29.651Z,97719.38
2019-05-14T18:17:58.841Z,97708.17
2019-05-14T18:20:28.426Z,97699.95
2019-05-14T18:22:53.994Z,97691.84
2019-05-14T18:25:20.718Z,97695.80
2019-05-14T18:27:49.922Z,97691.41
2019-05-14T18:30:18.123Z,97695.56
2019-05-14T18:32:44.560Z,97695.34
2019-05-14T18:35:11.143Z,97699.97
2019-05-14T18:37:38.864Z,97695.56
2019-05-14T18:40:05.732Z,97697.06
2019-05-14T18:42:32.330Z,97697.70
2019-05-14T18:44:59.283Z,97695.42
2019-05-14T18:47:29.089Z,97687.06
2019-05-14T18:49:55.847Z,97695.91
2019-05-14T18:52:22.421Z,97691.13
2019-05-14T18:54:51.520Z,97690.11
2019-05-14T18:57:18.366Z,97690.91
2019-05-14T18:59:45.233Z,97699.17
2019-05-14T19:02:11.911Z,97695.97
2019-05-14T19:04:38.900Z,97702.30
2019-05-14T19:07:05.775Z,97696.45
2019-05-14T19:09:32.423Z,97704.53
2019-05-14T19:11:59.288Z,97701.36
2019-05-14T19:14:26.066Z,97699.30
2019-05-14T19:16:54.643Z,97698.92
2019-05-14T19:19:21.309Z,97695.77
2019-05-14T19:21:49.735Z,97689.80
2019-05-14T19:24:18.903Z,97687.67
2019-05-14T19:26:45.686Z,97683.84
2019-05-14T19:29:12.274Z,97688.33
2019-05-14T19:31:40.766Z,97682.92
2019-05-14T19:34:08.607Z,97682.53
2019-05-14T19:36:35.550Z,97679.30
2019-05-14T19:39:02.230Z,97675.97
2019-05-14T19:41:28.823Z,97675.69
2019-05-14T19:43:55.753Z,97671.25
2019-05-14T19:46:22.822Z,97669.72
2019-05-14T19:48:49.513Z,97670.33
2019-05-14T19:51:16.093Z,97667.47
2019-05-14T19:53:42.750Z,97668.15
2019-05-14T19:56:09.582Z,97667.13
2019-05-14T19:58:38.361Z,97663.27
2019-05-14T20:01:04.866Z,97655.03
2019-05-14T20:03:31.848Z,97659.86
2019-05-14T20:05:58.719Z,97664.35
2019-05-14T20:08:26.406Z,97655.36
2019-05-14T20:10:53.033Z,97648.33
2019-05-14T20:13:19.914Z,97647.70
2019-05-14T20:15:48.665Z,97638.34
2019-05-14T20:18:14.920Z,97634.33
2019-05-14T20:20:41.819Z,97631.50
2019-05-14T20:23:08.740Z,97637.41
2019-05-14T20:25:35.325Z,97631.75
2019-05-14T20:28:02.422Z,97627.77
2019-05-14T20:33:01.253Z,97630.18
2019-05-14T20:35:34.349Z,97625.30
2019-05-14T20:37:58.443Z,97628.58
2019-05-14T20:40:29.496Z,97628.23
2019-05-14T20:42:58.616Z,97629.16
2019-05-14T20:45:24.712Z,97621.13
2019-05-14T20:47:51.626Z,97621.10
2019-05-14T20:50:18.830Z,97623.30
2019-05-14T20:52:45.420Z,97616.41
2019-05-14T20:55:12.294Z,97616.34
2019-05-14T20:57:38.981Z,97604.70
2019-05-14T21:00:05.588Z,97607.50
2019-05-14T21:02:33.474Z,97610.08
2019-05-14T21:05:04.496Z,97610.90
2019-05-14T21:07:28.939Z,97602.70
2019-05-14T21:09:56.027Z,97598.33
2019-05-14T21:12:22.746Z,97595.46
2019-05-14T21:14:49.467Z,97597.30
2019-05-14T21:17:18.942Z,97591.66
2019-05-14T21:19:44.950Z,97588.60
2019-05-14T21:22:11.544Z,97589.30
2019-05-14T21:24:39.268Z,97592.73
2019-05-14T21:27:09.089Z,97594.98
2019-05-14T21:29:38.251Z,97591.08
2019-05-14T21:32:05.007Z,97578.80
2019-05-14T21:34:31.854Z,97580.68
2019-05-14T21:36:58.586Z,97571.22
2019-05-14T21:39:26.198Z,97574.99
2019-05-14T21:41:52.780Z,97578.03
2019-05-14T21:44:19.379Z,97574.88
2019-05-14T21:46:48.264Z,97574.77
2019-05-14T21:49:15.082Z,97580.98
2019-05-14T21:51:41.666Z,97576.27
2019-05-14T21:54:09.436Z,97579.61
2019-05-14T21:56:38.649Z,97574.48
2019-05-14T21:59:04.930Z,97572.13
2019-05-14T22:01:35.558Z,97558.25
2019-05-14T22:04:04.487Z,97552.45
2019-05-14T22:06:31.072Z,97543.10
2019-05-14T22:08:59.162Z,97542.03
2019-05-14T22:11:28.115Z,97530.30
2019-05-14T22:13:54.839Z,97530.13
2019-05-14T22:16:21.494Z,97525.75
2019-05-14T22:18:48.453Z,97527.66
2019-05-14T22:21:15.147Z,97513.97
2019-05-14T22:23:41.956Z,97522.68
2019-05-14T22:26:08.863Z,97517.53
2019-05-14T22:28:35.509Z,97506.77
2019-05-14T22:31:02.503Z,97503.42
2019-05-14T22:33:29.352Z,97500.78
2019-05-14T22:35:58.065Z,97499.88
2019-05-14T22:38:24.599Z,97490.92
2019-05-14T22:40:51.191Z,97498.95
2019-05-14T22:43:18.300Z,97492.54
2019-05-14T22:45:45.085Z,97498.66
2019-05-14T22:48:11.700Z,97488.91
2019-05-14T22:50:41.291Z,97495.55
2019-05-14T22:53:09.204Z,97493.41
2019-05-14T22:55:35.401Z,97489.20
2019-05-14T22:58:01.992Z,97490.92
2019-05-14T23:00:29.082Z,97485.45
2019-05-14T23:02:56.010Z,97481.12
2019-05-14T23:05:22.695Z,97489.12
2019-05-14T23:07:49.357Z,97479.96
2019-05-14T23:10:18.384Z,97475.52
2019-05-14T23:12:45.213Z,97472.77
2019-05-14T23:15:12.159Z,97473.47
2019-05-14T23:17:39.153Z,97469.63
2019-05-14T23:20:05.671Z,97469.41
2019-05-14T23:25:04.807Z,97476.34
2019-05-14T23:27:31.406Z,97476.64
2019-05-14T23:29:58.722Z,97480.17
2019-05-14T23:32:29.455Z,97474.20
2019-05-14T23:34:58.306Z,97473.19
2019-05-14T23:37:24.362Z,97467.78
2019-05-14T23:39:51.437Z,97465.06
2019-05-14T23:42:18.652Z,97464.14
2019-05-14T23:44:46.280Z,97462.20
2019-05-14T23:47:13.013Z,97459.42
2019-05-14T23:49:39.692Z,97464.23
2019-05-14T23:52:06.379Z,97459.97
2019-05-14T23:54:33.187Z,97459.97
2019-05-14T23:56:59.792Z,97462.83
2019-05-14T23:59:26.363Z,97454.79
